createdAt,value
2023-01-03T00:03:45.964Z,100.00
2023-01-03T00:08:55.795Z,100.00
2023-01-03T00:14:03.576Z,100.00
2023-01-03T00:19:16.332Z,100.00
2023-01-03T00:24:23.793Z,100.00
2023-01-03T00:29:34.158Z,100.00
2023-01-03T00:34:45.559Z,100.00
2023-01-03T00:39:54.635Z,100.00
2023-01-03T00:45:02.221Z,100.00
2023-01-03T00:50:10.590Z,100.00
2023-01-03T00:55:19.804Z,100.00
2023-01-03T01:00:30.723Z,100.00
2023-01-03T01:05:39.131Z,100.00
2023-01-03T01:11:02.446Z,100.00
2023-01-03T01:16:13.108Z,100.00
2023-01-03T01:21:22.855Z,99.92
2023-01-03T01:26:31.258Z,99.82
2023-01-03T01:31:39.165Z,99.83
2023-01-03T01:36:47.732Z,99.04
2023-01-03T01:42:19.764Z,98.09
2023-01-03T01:47:37.576Z,98.66
2023-01-03T01:52:54.266Z,99.08
2023-01-03T02:03:33.703Z,99.15
2023-01-03T02:08:41.349Z,99.86
2023-01-03T02:13:57.589Z,100.00
2023-01-03T02:19:16.631Z,100.00
2023-01-03T02:24:56.471Z,99.99
2023-01-03T02:30:29.108Z,99.77
2023-01-03T02:35:46.509Z,99.71
2023-01-03T02:41:02.993Z,100.00
2023-01-03T02:46:20.201Z,100.00
2023-01-03T02:51:34.002Z,100.00
2023-01-03T02:56:46.175Z,100.00
2023-01-03T03:02:20.949Z,100.00
2023-01-03T03:07:33.329Z,100.00
2023-01-03T03:13:01.111Z,100.00
2023-01-03T03:18:14.271Z,100.00
2023-01-03T03:23:46.038Z,100.00
2023-01-03T03:29:03.418Z,100.00
2023-01-03T03:34:14.483Z,100.00
2023-01-03T03:39:46.082Z,100.00
2023-01-03T03:45:02.318Z,100.00
2023-01-03T03:50:20.426Z,100.00
2023-01-03T03:55:33.839Z,100.00
2023-01-03T04:00:44.722Z,100.00
2023-01-03T04:05:58.047Z,100.00
2023-01-03T04:11:07.335Z,100.00
2023-01-03T04:16:15.087Z,100.00
2023-01-03T04:21:23.592Z,100.00
2023-01-03T04:26:32.417Z,100.00
2023-01-03T04:31:41.290Z,100.00
2023-01-03T04:36:49.891Z,100.00
2023-01-03T04:42:01.620Z,100.00
2023-01-03T04:47:08.984Z,100.00
2023-01-03T04:52:17.441Z,100.00
2023-01-03T05:03:27.754Z,100.00
2023-01-03T05:08:32.772Z,100.00
2023-01-03T05:13:36.723Z,100.00
2023-01-03T05:18:41.652Z,100.00
2023-01-03T05:24:04.074Z,99.68
2023-01-03T05:29:09.048Z,99.63
2023-01-03T05:34:12.783Z,98.77
2023-01-03T05:39:17.125Z,98.77
2023-01-03T05:44:21.348Z,98.53
2023-01-03T05:49:25.099Z,98.47
2023-01-03T05:54:28.892Z,98.62
2023-01-03T05:59:32.631Z,98.07
2023-01-03T06:04:36.521Z,97.79
2023-01-03T06:09:40.446Z,99.05
2023-01-03T06:14:44.185Z,99.88
2023-01-03T06:19:47.888Z,99.99
2023-01-03T06:24:53.775Z,99.98
2023-01-03T06:29:57.564Z,100.00
2023-01-03T06:35:01.422Z,100.00
2023-01-03T06:40:07.141Z,100.00
2023-01-03T06:45:31.482Z,100.00
2023-01-03T06:50:53.474Z,99.87
2023-01-03T06:55:58.710Z,99.90
2023-01-03T07:04:14.701Z,100.00
2023-01-03T07:09:23.033Z,100.00
2023-01-03T07:14:33.916Z,100.00
2023-01-03T07:19:41.534Z,100.00
2023-01-03T07:24:51.148Z,100.00
2023-01-03T07:29:59.583Z,100.00
2023-01-03T07:35:09.346Z,100.00
2023-01-03T07:40:17.681Z,100.00
2023-01-03T07:45:26.564Z,99.95
2023-01-03T07:50:34.124Z,99.97
2023-01-03T07:55:41.890Z,99.67
2023-01-03T08:03:06.405Z,99.43
2023-01-03T08:08:17.792Z,99.62
2023-01-03T08:13:31.101Z,99.29
2023-01-03T08:18:39.417Z,99.79
2023-01-03T08:23:49.264Z,99.49
2023-01-03T08:28:59.676Z,99.29
2023-01-03T08:34:18.399Z,99.53
2023-01-03T08:39:33.705Z,99.93
2023-01-03T08:44:45.305Z,99.75
2023-01-03T08:49:53.130Z,99.95
2023-01-03T08:55:03.233Z,99.96
2023-01-03T09:00:15.269Z,100.00
2023-01-03T09:05:23.129Z,100.00
2023-01-03T09:10:32.783Z,100.00
2023-01-03T09:15:40.957Z,100.00
2023-01-03T09:20:52.808Z,100.00
2023-01-03T09:26:01.549Z,100.00
2023-01-03T09:31:11.513Z,100.00
2023-01-03T09:36:19.326Z,99.74
2023-01-03T09:41:32.182Z,99.31
2023-01-03T09:46:40.386Z,99.04
2023-01-03T09:52:07.837Z,98.51
2023-01-03T09:57:39.946Z,98.32
2023-01-03T10:03:19.975Z,97.49
2023-01-03T10:08:48.260Z,96.43
2023-01-03T10:14:07.247Z,91.67
2023-01-03T10:19:47.364Z,89.71
2023-01-03T10:25:02.464Z,88.66
2023-01-03T10:30:20.202Z,87.80
2023-01-03T10:35:32.375Z,86.96
2023-01-03T10:40:45.537Z,87.40
2023-01-03T10:46:01.525Z,86.35
2023-01-03T10:51:24.941Z,85.56
2023-01-03T10:56:37.018Z,85.78
2023-01-03T11:02:00.838Z,85.14
2023-01-03T11:07:17.231Z,84.52
2023-01-03T11:12:31.121Z,83.92
2023-01-03T11:17:39.894Z,83.41
2023-01-03T11:22:56.679Z,81.61
2023-01-03T11:28:36.160Z,78.52
2023-01-03T11:34:03.652Z,77.06
2023-01-03T11:39:33.719Z,78.28
2023-01-03T11:45:08.756Z,79.03
2023-01-03T11:50:38.864Z,78.74
2023-01-03T11:56:03.970Z,77.49
2023-01-03T12:01:26.027Z,77.58
2023-01-03T12:06:40.250Z,76.84
2023-01-03T12:12:09.093Z,76.97
2023-01-03T12:17:22.406Z,77.71
2023-01-03T12:22:40.381Z,78.48
2023-01-03T12:27:57.205Z,78.76
2023-01-03T12:33:15.065Z,79.61
2023-01-03T12:38:32.217Z,80.38
2023-01-03T12:43:47.447Z,80.41
2023-01-03T12:49:01.791Z,81.04
2023-01-03T12:54:25.875Z,81.49
2023-01-03T13:00:03.275Z,81.47
2023-01-03T13:05:20.451Z,81.50
2023-01-03T13:10:33.936Z,81.37
2023-01-03T13:15:41.889Z,81.76
2023-01-03T13:20:51.567Z,81.53
2023-01-03T13:36:02.323Z,81.66
2023-01-03T13:41:34.203Z,82.13
2023-01-03T13:46:43.841Z,82.38
2023-01-03T13:51:55.016Z,82.40
2023-01-03T13:57:05.468Z,82.61
2023-01-03T14:03:03.935Z,82.82
2023-01-03T14:08:35.318Z,83.02
2023-01-03T14:13:46.299Z,83.04
2023-01-03T14:19:00.755Z,83.28
2023-01-03T14:24:15.063Z,83.34
2023-01-03T14:29:27.668Z,83.54
2023-01-03T14:42:57.649Z,83.88
2023-01-03T14:48:07.353Z,84.06
2023-01-03T14:53:16.145Z,84.26
2023-01-03T14:58:34.751Z,84.15
2023-01-03T15:03:48.848Z,84.18
2023-01-03T15:08:59.356Z,84.38
2023-01-03T15:14:08.565Z,84.49
2023-01-03T15:19:21.320Z,84.77
2023-01-03T15:24:35.142Z,85.23
2023-01-03T15:29:48.466Z,85.28
2023-01-03T15:34:57.777Z,85.61
2023-01-03T15:40:06.914Z,85.59
2023-01-03T15:45:21.618Z,85.72
2023-01-03T15:50:40.001Z,84.92
2023-01-03T15:55:49.608Z,84.02
2023-01-03T16:00:58.348Z,82.91
2023-01-03T16:06:06.779Z,81.92
2023-01-03T16:11:20.425Z,81.47
2023-01-03T16:16:32.489Z,81.24
2023-01-03T16:21:40.124Z,80.69
2023-01-03T16:26:48.410Z,80.29
2023-01-03T16:31:59.971Z,80.03
2023-01-03T16:37:10.202Z,79.69
2023-01-03T16:42:19.204Z,79.85
2023-01-03T16:47:35.989Z,79.83
2023-01-03T16:52:48.025Z,79.88
2023-01-03T16:57:57.457Z,80.32
2023-01-03T17:03:05.439Z,80.13
2023-01-03T17:08:20.959Z,80.14
2023-01-03T17:13:34.827Z,80.78
2023-01-03T17:18:43.758Z,80.97
2023-01-03T17:23:52.296Z,81.39
2023-01-03T17:29:03.969Z,81.87
2023-01-03T17:34:29.616Z,82.12
2023-01-03T17:39:38.175Z,82.54
2023-01-03T17:45:07.035Z,83.14
2023-01-03T17:50:15.291Z,83.63
2023-01-03T17:55:24.679Z,83.77
2023-01-03T18:00:33.707Z,84.10
2023-01-03T18:05:41.914Z,84.32
2023-01-03T18:10:55.049Z,84.70
2023-01-03T18:16:05.130Z,85.57
2023-01-03T18:21:21.779Z,85.16
2023-01-03T18:26:34.587Z,85.08
2023-01-03T18:31:42.402Z,85.75
2023-01-03T18:36:52.582Z,85.68
2023-01-03T18:42:15.503Z,86.18
2023-01-03T18:47:22.968Z,86.28
2023-01-03T18:52:41.100Z,86.26
2023-01-03T18:57:47.817Z,86.54
2023-01-03T19:02:56.581Z,87.22
2023-01-03T19:08:08.527Z,87.47
2023-01-03T19:13:27.449Z,87.80
2023-01-03T19:18:35.146Z,88.35
2023-01-03T19:23:46.125Z,88.68
2023-01-03T19:28:59.049Z,88.42
2023-01-03T19:34:07.557Z,88.36
2023-01-03T19:39:17.725Z,88.21
2023-01-03T19:44:30.267Z,87.64
2023-01-03T19:49:39.151Z,87.55
2023-01-03T19:54:47.534Z,87.44
2023-01-03T20:00:00.733Z,87.83
2023-01-03T20:05:17.186Z,88.35
2023-01-03T20:10:27.903Z,88.19
2023-01-03T20:15:39.514Z,88.27
2023-01-03T20:20:47.863Z,87.88
2023-01-03T20:25:58.593Z,87.93
2023-01-03T20:31:08.404Z,87.47
2023-01-03T20:36:23.312Z,88.13
2023-01-03T20:41:37.419Z,87.98
2023-01-03T20:46:45.954Z,87.98
2023-01-03T20:51:55.164Z,88.23
2023-01-03T20:57:03.921Z,87.80
2023-01-03T21:02:13.353Z,87.87
2023-01-03T21:07:51.659Z,87.49
2023-01-03T21:13:01.853Z,87.73
2023-01-03T21:18:12.855Z,88.08
2023-01-03T21:23:23.429Z,87.91
2023-01-03T21:28:32.481Z,87.57
2023-01-03T21:33:41.420Z,87.72
2023-01-03T21:38:49.440Z,88.21
2023-01-03T21:44:01.796Z,88.36
2023-01-03T21:49:09.782Z,88.57
2023-01-03T21:54:18.839Z,88.22
2023-01-03T21:59:27.993Z,88.51
2023-01-03T22:04:36.090Z,88.48
2023-01-03T22:10:11.102Z,88.85
2023-01-03T22:15:22.460Z,89.32
2023-01-03T22:20:36.356Z,89.36
2023-01-03T22:25:46.451Z,89.52
2023-01-03T22:30:56.198Z,89.60
2023-01-03T22:36:04.921Z,89.02
2023-01-03T22:41:15.035Z,88.68
2023-01-03T22:46:23.740Z,89.41
2023-01-03T22:51:33.213Z,90.24
2023-01-03T22:56:41.098Z,90.05
2023-01-03T23:01:51.270Z,90.11
2023-01-03T23:07:00.356Z,90.06
2023-01-03T23:12:26.917Z,90.56
2023-01-03T23:17:52.169Z,90.68
2023-01-03T23:23:03.339Z,91.04
2023-01-03T23:28:12.034Z,91.08
2023-01-03T23:33:19.614Z,90.96
2023-01-03T23:38:29.622Z,91.45
2023-01-03T23:43:37.806Z,90.97
2023-01-03T23:48:46.031Z,90.66
2023-01-03T23:53:53.660Z,90.93
2023-01-03T23:59:04.239Z,90.86
